Aegean Clover — 7JXV — position and weather

sailwx.info

Track history (hours):
 
Tides and Currents Weather Stations Pressure Air Temp Water Temp Dewpoint Dewpoint Depression Visibility Wind Speed Wind Dir Waves Ship Positions

Aegean Clover

Last reported at 2017-Oct-07 08:54 UTC. Time now 2017-Nov-19 05:04 UTC.
Position N 33°57' E 134°56'.
Warning: this ship's position is 42 days out of date.

Length 299 m; draft 10.3 m.

Type: Cargo ship. MMSI: 431398000.

Date/timePositionNaut miles runAvg speedWind from/ knotsBaromVisibWave heightAir tempDewpointWater temp
2017-Oct-07 08:54N 33°57' E 134°56'615.4
2017-Oct-07 08:29N 34°03' E 134°57'714.7
2017-Oct-07 08:00N 34°10' E 134°57'612.1
2017-Oct-07 07:30N 34°16' E 134°58'715.1
2017-Oct-07 07:00N 34°23' E 135°01'815.3
2017-Oct-07 06:30N 34°30' E 135°06'5 9.6
2017-Oct-07 06:00N 34°34' E 135°07'611.2
2017-Oct-07 05:30N 34°37' E 135°01'816.3
2017-Oct-07 05:00N 34°34' E 134°52'  
Track history (hours):
 
Tides and Currents Weather Stations Pressure Air Temp Water Temp Dewpoint Dewpoint Depression Visibility Wind Speed Wind Dir Waves Ship Positions

Aegean Clover

Last reported at 2017-Oct-07 08:54 UTC. Time now 2017-Nov-19 05:04 UTC.
Position N 33°57' E 134°56'.
Warning: this ship's position is 42 days out of date.

Length 299 m; draft 10.3 m.

Type: Cargo ship. MMSI: 431398000.

Date/timePositionNaut miles runAvg speedWind from/ knotsBaromVisibWave heightAir tempDewpointWater temp
2017-Oct-07 08:54N 33°57' E 134°56'615.4
2017-Oct-07 08:29N 34°03' E 134°57'714.7
2017-Oct-07 08:00N 34°10' E 134°57'612.1
2017-Oct-07 07:30N 34°16' E 134°58'715.1
2017-Oct-07 07:00N 34°23' E 135°01'815.3
2017-Oct-07 06:30N 34°30' E 135°06'5 9.6
2017-Oct-07 06:00N 34°34' E 135°07'611.2
2017-Oct-07 05:30N 34°37' E 135°01'816.3
2017-Oct-07 05:00N 34°34' E 134°52'  

Dump ship's entire track history